Coral Canyon GC
1925 N Canyon Greens Drive, Washington
Last Weather Update:08/30/2011 11:00:00 PM
Date
ETo
ETc
Rain
Irrigation
Req
Temp
Max
Temp
Min
Temp
Avg
Avg RH
Avg Wind
Avg Solar
inches
inches
incehs
inches
F
F
F
%
%
watts/m2
07/01/2011 0.26" 0.21" 0.00" 0.21" 102.4° 56.3° 81.1° 26.8% 1.8 MPH 349.3w/m2
07/02/2011 0.31" 0.25" 0.00" 0.25" 107.3° 61.3° 87.6° 19.6% 3.3 MPH 348.6w/m2
07/03/2011 0.30" 0.24" 0.00" 0.24" 105.1° 71.9° 88.7° 19.7% 4.3 MPH 282.1w/m2
07/04/2011 0.22" 0.18" 0.00" 0.18" 92.7° 70.1° 83.9° 35.7% 3.6 MPH 203.6w/m2
07/05/2011 0.22" 0.18" 0.00" 0.18" 99.4° 68.7° 85.3° 34.9% 3.1 MPH 234.2w/m2
07/06/2011 0.23" 0.19" 0.00" 0.19" 97.7° 72.3° 84.6° 38.3% 3.9 MPH 242.2w/m2
07/07/2011 0.28" 0.23" 0.00" 0.23" 98.4° 68.9° 84.4° 43.8% 3.8 MPH 323.5w/m2
07/08/2011 0.26" 0.22" 0.06" 0.17" 95.1° 67.9° 82.8° 44.7% 4.3 MPH 292.1w/m2
07/09/2011 0.26" 0.22" 0.00" 0.22" 97.3° 66.7° 80.3° 52.1% 3.1 MPH 329.8w/m2
07/10/2011 0.16" 0.13" 0.04" 0.10" 93.1° 68.5° 80.3° 45.8% 3.0 MPH 175.1w/m2
07/11/2011 0.20" 0.17" 0.00" 0.17" 91.5° 71.9° 81.0° 41.1% 3.7 MPH 203.9w/m2
07/12/2011 0.24" 0.20" 0.00" 0.20" 94.7° 66.5° 80.7° 40.3% 3.4 MPH 261.3w/m2
07/13/2011 0.28" 0.24" 0.00" 0.24" 94.7° 64.3° 80.9° 31.8% 4.7 MPH 294.4w/m2
07/14/2011 0.28" 0.24" 0.00" 0.24" 93.9° 62.4° 78.7° 24.6% 3.5 MPH 341.9w/m2
07/15/2011 0.27" 0.23" 0.00" 0.23" 94.2° 60.8° 78.1° 25.7% 3.2 MPH 343.4w/m2
07/16/2011 0.27" 0.23" 0.00" 0.23" 96.9° 58.8° 78.5° 26.3% 3.2 MPH 345.3w/m2
07/17/2011 0.26" 0.22" 0.00" 0.22" 101.8° 56.4° 81.5° 23.5% 2.8 MPH 306.1w/m2
07/18/2011 0.28" 0.24" 0.00" 0.24" 101.5° 77.9° 90.0° 22.7% 4.0 MPH 277.5w/m2
07/19/2011 0.29" 0.25" 0.00" 0.25" 101.8° 74.7° 88.2° 30.6% 3.5 MPH 321.4w/m2
07/20/2011 0.30" 0.26" 0.00" 0.26" 102.3° 67.9° 86.9° 24.3% 3.8 MPH 335.4w/m2
07/21/2011 0.28" 0.24" 0.00" 0.24" 100.5° 58.7° 81.8° 17.7% 2.8 MPH 348.3w/m2
07/22/2011 0.28" 0.25" 0.00" 0.25" 100.0° 60.5° 80.8° 17.1% 3.1 MPH 349.1w/m2
07/23/2011 0.28" 0.24" 0.00" 0.24" 100.8° 64.5° 83.8° 18.7% 3.2 MPH 334.2w/m2
07/24/2011 0.27" 0.24" 0.00" 0.24" 102.5° 65.5° 85.1° 27.0% 3.4 MPH 299.1w/m2
07/25/2011 0.29" 0.25" 0.00" 0.25" 101.0° 69.7° 87.4° 31.5% 4.0 MPH 297.7w/m2
07/26/2011 0.07" 0.06" 0.18" -0.08" 85.0° 70.9° 76.0° 67.7% 2.9 MPH 74.7w/m2
07/27/2011 0.25" 0.22" 0.00" 0.22" 98.2° 65.7° 81.6° 48.1% 2.8 MPH 311.3w/m2
07/28/2011 0.25" 0.23" 0.00" 0.23" 100.5° 67.2° 84.6° 31.2% 3.1 MPH 299.4w/m2
07/29/2011 0.27" 0.24" 0.00" 0.24" 103.9° 65.6° 87.4° 27.6% 3.6 MPH 270.9w/m2
07/30/2011 0.25" 0.22" 0.00" 0.22" 101.5° 75.8° 89.0° 30.0% 2.9 MPH 258.3w/m2
07/31/2011 0.15" 0.13" 0.03" 0.11" 87.4° 73.2° 81.0° 52.2% 3.2 MPH 150.4w/m2
Totals: 7.82" 6.65" 0.31" 6.41" 107.3° 56.3° 83.3° 32.9% 3.4 MPH 284.0w/m2